sensor_id;sensor_type;location;lat;lon;timestamp;P1;durP1;ratioP1;P2;durP2;ratioP2
41687;SDS011;27371;42.686;23.362;2022-07-29T00:03:03;7.75;;;6.95;;
41687;SDS011;27371;42.686;23.362;2022-07-29T00:05:29;8.68;;;7.10;;
41687;SDS011;27371;42.686;23.362;2022-07-29T00:07:54;8.15;;;6.90;;
41687;SDS011;27371;42.686;23.362;2022-07-29T00:10:20;8.25;;;6.65;;
41687;SDS011;27371;42.686;23.362;2022-07-29T00:12:46;7.28;;;6.57;;
41687;SDS011;27371;42.686;23.362;2022-07-29T00:15:12;7.78;;;6.60;;
41687;SDS011;27371;42.686;23.362;2022-07-29T00:17:37;7.75;;;6.72;;
41687;SDS011;27371;42.686;23.362;2022-07-29T00:20:03;7.70;;;6.90;;
41687;SDS011;27371;42.686;23.362;2022-07-29T00:22:29;9.63;;;7.15;;
41687;SDS011;27371;42.686;23.362;2022-07-29T00:24:55;9.57;;;6.88;;
41687;SDS011;27371;42.686;23.362;2022-07-29T00:27:20;9.13;;;6.55;;
41687;SDS011;27371;42.686;23.362;2022-07-29T00:29:46;8.48;;;7.38;;
41687;SDS011;27371;42.686;23.362;2022-07-29T00:32:12;7.90;;;7.05;;
41687;SDS011;27371;42.686;23.362;2022-07-29T00:34:37;8.70;;;7.07;;
41687;SDS011;27371;42.686;23.362;2022-07-29T00:37:22;7.90;;;7.10;;
41687;SDS011;27371;42.686;23.362;2022-07-29T00:39:47;9.13;;;7.45;;
41687;SDS011;27371;42.686;23.362;2022-07-29T00:42:13;8.88;;;7.18;;
41687;SDS011;27371;42.686;23.362;2022-07-29T00:44:38;8.90;;;6.60;;
41687;SDS011;27371;42.686;23.362;2022-07-29T00:47:05;10.75;;;7.30;;
41687;SDS011;27371;42.686;23.362;2022-07-29T00:49:31;9.95;;;7.20;;
41687;SDS011;27371;42.686;23.362;2022-07-29T00:51:56;9.85;;;7.53;;
41687;SDS011;27371;42.686;23.362;2022-07-29T00:54:22;9.18;;;7.57;;
41687;SDS011;27371;42.686;23.362;2022-07-29T00:56:48;9.73;;;6.63;;
41687;SDS011;27371;42.686;23.362;2022-07-29T00:59:14;10.52;;;7.55;;
41687;SDS011;27371;42.686;23.362;2022-07-29T01:01:39;8.13;;;7.10;;
41687;SDS011;27371;42.686;23.362;2022-07-29T01:04:05;7.97;;;7.13;;
41687;SDS011;27371;42.686;23.362;2022-07-29T01:06:31;9.88;;;7.85;;
41687;SDS011;27371;42.686;23.362;2022-07-29T01:08:57;9.57;;;8.35;;
41687;SDS011;27371;42.686;23.362;2022-07-29T01:11:23;9.45;;;8.45;;
41687;SDS011;27371;42.686;23.362;2022-07-29T01:13:49;11.93;;;8.70;;
41687;SDS011;27371;42.686;23.362;2022-07-29T01:16:18;10.25;;;8.73;;
41687;SDS011;27371;42.686;23.362;2022-07-29T01:18:51;10.82;;;9.63;;
41687;SDS011;27371;42.686;23.362;2022-07-29T01:24:19;11.98;;;10.32;;
41687;SDS011;27371;42.686;23.362;2022-07-29T01:29:30;12.30;;;11.05;;
41687;SDS011;27371;42.686;23.362;2022-07-29T01:32:03;13.02;;;10.90;;
41687;SDS011;27371;42.686;23.362;2022-07-29T01:34:41;12.77;;;10.95;;
41687;SDS011;27371;42.686;23.362;2022-07-29T01:42:59;11.95;;;10.70;;
41687;SDS011;27371;42.686;23.362;2022-07-29T01:45:37;12.73;;;11.35;;
41687;SDS011;27371;42.686;23.362;2022-07-29T01:51:01;16.02;;;12.70;;
41687;SDS011;27371;42.686;23.362;2022-07-29T01:53:32;13.20;;;11.90;;
41687;SDS011;27371;42.686;23.362;2022-07-29T01:56:01;12.90;;;11.57;;
41687;SDS011;27371;42.686;23.362;2022-07-29T01:58:28;14.88;;;11.95;;
41687;SDS011;27371;42.686;23.362;2022-07-29T02:00:57;13.80;;;12.02;;
41687;SDS011;27371;42.686;23.362;2022-07-29T02:03:24;14.18;;;11.70;;
41687;SDS011;27371;42.686;23.362;2022-07-29T02:05:52;15.27;;;11.50;;
41687;SDS011;27371;42.686;23.362;2022-07-29T02:08:18;13.15;;;11.50;;
41687;SDS011;27371;42.686;23.362;2022-07-29T02:10:45;11.32;;;10.20;;
41687;SDS011;27371;42.686;23.362;2022-07-29T02:13:14;12.80;;;11.50;;
41687;SDS011;27371;42.686;23.362;2022-07-29T02:15:42;13.10;;;10.93;;
41687;SDS011;27371;42.686;23.362;2022-07-29T02:18:14;13.20;;;11.05;;
41687;SDS011;27371;42.686;23.362;2022-07-29T02:20:45;12.82;;;10.65;;
41687;SDS011;27371;42.686;23.362;2022-07-29T02:23:14;12.05;;;10.75;;
41687;SDS011;27371;42.686;23.362;2022-07-29T02:25:47;11.85;;;10.60;;
41687;SDS011;27371;42.686;23.362;2022-07-29T02:28:17;14.25;;;10.70;;
41687;SDS011;27371;42.686;23.362;2022-07-29T02:30:44;14.98;;;10.93;;
41687;SDS011;27371;42.686;23.362;2022-07-29T02:33:12;14.38;;;11.15;;
41687;SDS011;27371;42.686;23.362;2022-07-29T02:35:39;14.13;;;12.02;;
41687;SDS011;27371;42.686;23.362;2022-07-29T02:38:06;13.85;;;12.45;;
41687;SDS011;27371;42.686;23.362;2022-07-29T02:40:52;19.73;;;12.57;;
41687;SDS011;27371;42.686;23.362;2022-07-29T02:43:20;14.32;;;12.60;;
41687;SDS011;27371;42.686;23.362;2022-07-29T02:45:47;15.70;;;12.20;;
41687;SDS011;27371;42.686;23.362;2022-07-29T02:48:18;14.18;;;12.77;;
41687;SDS011;27371;42.686;23.362;2022-07-29T02:50:48;13.65;;;12.05;;
41687;SDS011;27371;42.686;23.362;2022-07-29T02:53:22;12.60;;;11.27;;
41687;SDS011;27371;42.686;23.362;2022-07-29T02:55:58;15.13;;;12.68;;
41687;SDS011;27371;42.686;23.362;2022-07-29T03:01:24;14.18;;;11.65;;
41687;SDS011;27371;42.686;23.362;2022-07-29T03:03:55;12.50;;;11.30;;
41687;SDS011;27371;42.686;23.362;2022-07-29T03:06:22;15.60;;;10.93;;
41687;SDS011;27371;42.686;23.362;2022-07-29T03:08:50;15.05;;;12.02;;
41687;SDS011;27371;42.686;23.362;2022-07-29T03:11:16;13.55;;;12.15;;
41687;SDS011;27371;42.686;23.362;2022-07-29T03:13:42;13.18;;;11.77;;
41687;SDS011;27371;42.686;23.362;2022-07-29T03:16:09;12.80;;;11.52;;
41687;SDS011;27371;42.686;23.362;2022-07-29T03:18:35;14.13;;;12.55;;
41687;SDS011;27371;42.686;23.362;2022-07-29T03:21:02;14.40;;;11.38;;
41687;SDS011;27371;42.686;23.362;2022-07-29T03:23:28;13.80;;;12.18;;
41687;SDS011;27371;42.686;23.362;2022-07-29T03:25:54;13.68;;;12.27;;
41687;SDS011;27371;42.686;23.362;2022-07-29T03:28:19;13.07;;;11.68;;
41687;SDS011;27371;42.686;23.362;2022-07-29T03:30:46;12.68;;;11.45;;
41687;SDS011;27371;42.686;23.362;2022-07-29T03:33:11;15.75;;;11.35;;
41687;SDS011;27371;42.686;23.362;2022-07-29T03:35:37;14.00;;;11.07;;
41687;SDS011;27371;42.686;23.362;2022-07-29T03:38:02;12.40;;;11.07;;
41687;SDS011;27371;42.686;23.362;2022-07-29T03:40:32;13.73;;;10.68;;
41687;SDS011;27371;42.686;23.362;2022-07-29T03:43:02;15.05;;;10.52;;
41687;SDS011;27371;42.686;23.362;2022-07-29T03:45:30;10.95;;;9.95;;
41687;SDS011;27371;42.686;23.362;2022-07-29T03:47:58;11.65;;;10.18;;
41687;SDS011;27371;42.686;23.362;2022-07-29T03:50:28;12.18;;;10.60;;
41687;SDS011;27371;42.686;23.362;2022-07-29T03:52:55;14.93;;;8.85;;
41687;SDS011;27371;42.686;23.362;2022-07-29T03:55:21;11.43;;;9.27;;
41687;SDS011;27371;42.686;23.362;2022-07-29T03:57:47;10.20;;;9.18;;
41687;SDS011;27371;42.686;23.362;2022-07-29T04:00:14;10.85;;;8.77;;
41687;SDS011;27371;42.686;23.362;2022-07-29T04:02:40;11.27;;;8.65;;
41687;SDS011;27371;42.686;23.362;2022-07-29T04:05:13;12.90;;;8.85;;
41687;SDS011;27371;42.686;23.362;2022-07-29T04:07:40;9.10;;;8.02;;
41687;SDS011;27371;42.686;23.362;2022-07-29T04:10:08;11.55;;;8.85;;
41687;SDS011;27371;42.686;23.362;2022-07-29T04:12:33;14.50;;;9.30;;
41687;SDS011;27371;42.686;23.362;2022-07-29T04:14:59;13.15;;;9.00;;
41687;SDS011;27371;42.686;23.362;2022-07-29T04:17:24;12.48;;;8.27;;
41687;SDS011;27371;42.686;23.362;2022-07-29T04:19:50;11.95;;;8.18;;
41687;SDS011;27371;42.686;23.362;2022-07-29T04:22:16;12.25;;;7.20;;
41687;SDS011;27371;42.686;23.362;2022-07-29T04:24:41;9.95;;;7.72;;
41687;SDS011;27371;42.686;23.362;2022-07-29T04:27:06;10.95;;;7.47;;
41687;SDS011;27371;42.686;23.362;2022-07-29T04:29:32;8.38;;;6.80;;
41687;SDS011;27371;42.686;23.362;2022-07-29T04:31:57;9.85;;;6.47;;
41687;SDS011;27371;42.686;23.362;2022-07-29T04:34:23;8.05;;;5.95;;
41687;SDS011;27371;42.686;23.362;2022-07-29T04:36:48;8.82;;;6.20;;
41687;SDS011;27371;42.686;23.362;2022-07-29T04:39:14;10.63;;;5.88;;
41687;SDS011;27371;42.686;23.362;2022-07-29T04:41:39;5.95;;;5.10;;
41687;SDS011;27371;42.686;23.362;2022-07-29T04:44:05;7.43;;;5.65;;
41687;SDS011;27371;42.686;23.362;2022-07-29T04:46:31;7.75;;;5.35;;
41687;SDS011;27371;42.686;23.362;2022-07-29T04:48:56;7.25;;;5.38;;
41687;SDS011;27371;42.686;23.362;2022-07-29T04:51:22;7.82;;;5.45;;
41687;SDS011;27371;42.686;23.362;2022-07-29T04:53:47;9.13;;;5.97;;
41687;SDS011;27371;42.686;23.362;2022-07-29T04:56:13;9.38;;;5.53;;
41687;SDS011;27371;42.686;23.362;2022-07-29T04:58:38;7.82;;;5.63;;
41687;SDS011;27371;42.686;23.362;2022-07-29T05:01:04;6.60;;;5.40;;
41687;SDS011;27371;42.686;23.362;2022-07-29T05:03:30;10.45;;;5.63;;
41687;SDS011;27371;42.686;23.362;2022-07-29T05:05:55;8.85;;;5.13;;
41687;SDS011;27371;42.686;23.362;2022-07-29T05:08:22;10.00;;;5.15;;
41687;SDS011;27371;42.686;23.362;2022-07-29T05:10:47;6.88;;;5.28;;
41687;SDS011;27371;42.686;23.362;2022-07-29T05:13:14;11.05;;;5.03;;
41687;SDS011;27371;42.686;23.362;2022-07-29T05:15:39;6.72;;;4.70;;
41687;SDS011;27371;42.686;23.362;2022-07-29T05:18:05;6.75;;;4.97;;
41687;SDS011;27371;42.686;23.362;2022-07-29T05:20:30;7.30;;;4.65;;
41687;SDS011;27371;42.686;23.362;2022-07-29T05:23:00;7.63;;;4.30;;
41687;SDS011;27371;42.686;23.362;2022-07-29T05:25:27;6.47;;;4.55;;
41687;SDS011;27371;42.686;23.362;2022-07-29T05:27:53;6.13;;;4.50;;
41687;SDS011;27371;42.686;23.362;2022-07-29T05:30:20;7.68;;;5.30;;
41687;SDS011;27371;42.686;23.362;2022-07-29T05:32:46;5.35;;;4.18;;
41687;SDS011;27371;42.686;23.362;2022-07-29T05:35:12;7.60;;;4.40;;
41687;SDS011;27371;42.686;23.362;2022-07-29T05:37:38;7.00;;;4.25;;
41687;SDS011;27371;42.686;23.362;2022-07-29T05:40:04;5.95;;;3.53;;
41687;SDS011;27371;42.686;23.362;2022-07-29T05:42:30;6.90;;;3.67;;
41687;SDS011;27371;42.686;23.362;2022-07-29T05:44:55;7.68;;;3.92;;
41687;SDS011;27371;42.686;23.362;2022-07-29T05:47:21;7.80;;;3.67;;
41687;SDS011;27371;42.686;23.362;2022-07-29T05:49:48;6.63;;;3.20;;
41687;SDS011;27371;42.686;23.362;2022-07-29T05:52:13;7.65;;;3.50;;
41687;SDS011;27371;42.686;23.362;2022-07-29T05:54:40;6.90;;;3.72;;
41687;SDS011;27371;42.686;23.362;2022-07-29T05:57:05;4.40;;;3.97;;
41687;SDS011;27371;42.686;23.362;2022-07-29T05:59:35;9.20;;;3.42;;
41687;SDS011;27371;42.686;23.362;2022-07-29T06:02:01;5.78;;;3.50;;
41687;SDS011;27371;42.686;23.362;2022-07-29T06:07:10;6.65;;;4.15;;
41687;SDS011;27371;42.686;23.362;2022-07-29T06:09:36;7.10;;;3.67;;
41687;SDS011;27371;42.686;23.362;2022-07-29T06:12:02;6.75;;;4.03;;
41687;SDS011;27371;42.686;23.362;2022-07-29T06:14:28;7.18;;;4.13;;
41687;SDS011;27371;42.686;23.362;2022-07-29T06:16:53;6.68;;;4.05;;
41687;SDS011;27371;42.686;23.362;2022-07-29T06:19:19;4.57;;;3.30;;
41687;SDS011;27371;42.686;23.362;2022-07-29T06:21:45;4.50;;;3.47;;
41687;SDS011;27371;42.686;23.362;2022-07-29T06:24:12;10.52;;;3.97;;
41687;SDS011;27371;42.686;23.362;2022-07-29T06:26:39;7.47;;;3.90;;
41687;SDS011;27371;42.686;23.362;2022-07-29T06:29:05;5.78;;;3.80;;
41687;SDS011;27371;42.686;23.362;2022-07-29T06:31:35;7.10;;;3.17;;
41687;SDS011;27371;42.686;23.362;2022-07-29T06:34:01;7.55;;;3.60;;
41687;SDS011;27371;42.686;23.362;2022-07-29T06:36:26;4.65;;;3.28;;
41687;SDS011;27371;42.686;23.362;2022-07-29T06:38:52;5.63;;;4.03;;
41687;SDS011;27371;42.686;23.362;2022-07-29T06:41:17;7.53;;;3.50;;
41687;SDS011;27371;42.686;23.362;2022-07-29T06:43:43;5.93;;;3.42;;
41687;SDS011;27371;42.686;23.362;2022-07-29T06:46:11;5.18;;;3.42;;
41687;SDS011;27371;42.686;23.362;2022-07-29T06:48:42;5.95;;;3.30;;
41687;SDS011;27371;42.686;23.362;2022-07-29T06:51:09;8.57;;;3.50;;
41687;SDS011;27371;42.686;23.362;2022-07-29T06:53:35;7.50;;;3.42;;
41687;SDS011;27371;42.686;23.362;2022-07-29T06:56:01;5.18;;;2.80;;
41687;SDS011;27371;42.686;23.362;2022-07-29T06:58:29;5.43;;;2.78;;
41687;SDS011;27371;42.686;23.362;2022-07-29T07:00:55;3.90;;;2.50;;
41687;SDS011;27371;42.686;23.362;2022-07-29T07:03:22;4.57;;;2.75;;
41687;SDS011;27371;42.686;23.362;2022-07-29T07:05:47;4.80;;;2.83;;
41687;SDS011;27371;42.686;23.362;2022-07-29T07:08:13;5.53;;;3.00;;
41687;SDS011;27371;42.686;23.362;2022-07-29T07:10:39;6.45;;;2.70;;
41687;SDS011;27371;42.686;23.362;2022-07-29T07:13:05;4.22;;;2.42;;
41687;SDS011;27371;42.686;23.362;2022-07-29T07:15:31;6.50;;;2.70;;
41687;SDS011;27371;42.686;23.362;2022-07-29T07:17:56;6.93;;;2.83;;
41687;SDS011;27371;42.686;23.362;2022-07-29T07:20:25;3.90;;;2.75;;
41687;SDS011;27371;42.686;23.362;2022-07-29T07:22:50;5.22;;;2.78;;
41687;SDS011;27371;42.686;23.362;2022-07-29T07:25:16;3.90;;;2.33;;
41687;SDS011;27371;42.686;23.362;2022-07-29T07:27:44;7.13;;;2.55;;
41687;SDS011;27371;42.686;23.362;2022-07-29T07:30:10;6.07;;;2.60;;
41687;SDS011;27371;42.686;23.362;2022-07-29T07:32:36;3.05;;;2.50;;
41687;SDS011;27371;42.686;23.362;2022-07-29T07:35:05;6.97;;;2.50;;
41687;SDS011;27371;42.686;23.362;2022-07-29T07:37:32;4.95;;;2.50;;
41687;SDS011;27371;42.686;23.362;2022-07-29T07:39:58;8.43;;;2.75;;
41687;SDS011;27371;42.686;23.362;2022-07-29T07:42:24;7.78;;;2.92;;
41687;SDS011;27371;42.686;23.362;2022-07-29T07:44:49;4.05;;;2.15;;
41687;SDS011;27371;42.686;23.362;2022-07-29T07:47:16;4.03;;;2.55;;
41687;SDS011;27371;42.686;23.362;2022-07-29T07:49:45;2.40;;;2.17;;
41687;SDS011;27371;42.686;23.362;2022-07-29T07:52:18;5.20;;;2.38;;
41687;SDS011;27371;42.686;23.362;2022-07-29T07:54:45;5.35;;;2.38;;
41687;SDS011;27371;42.686;23.362;2022-07-29T07:57:12;4.13;;;2.40;;
41687;SDS011;27371;42.686;23.362;2022-07-29T07:59:38;4.07;;;2.10;;
41687;SDS011;27371;42.686;23.362;2022-07-29T08:02:04;3.92;;;2.75;;
41687;SDS011;27371;42.686;23.362;2022-07-29T08:04:30;4.70;;;2.20;;
41687;SDS011;27371;42.686;23.362;2022-07-29T08:06:56;7.00;;;2.75;;
41687;SDS011;27371;42.686;23.362;2022-07-29T08:09:23;2.47;;;2.10;;
41687;SDS011;27371;42.686;23.362;2022-07-29T08:11:49;3.70;;;2.30;;
41687;SDS011;27371;42.686;23.362;2022-07-29T08:14:15;4.18;;;2.28;;
41687;SDS011;27371;42.686;23.362;2022-07-29T08:16:41;4.70;;;2.35;;
41687;SDS011;27371;42.686;23.362;2022-07-29T08:19:07;4.82;;;2.22;;
41687;SDS011;27371;42.686;23.362;2022-07-29T08:21:33;4.38;;;2.38;;
41687;SDS011;27371;42.686;23.362;2022-07-29T08:23:58;2.67;;;2.30;;
41687;SDS011;27371;42.686;23.362;2022-07-29T08:26:42;5.93;;;2.05;;
41687;SDS011;27371;42.686;23.362;2022-07-29T08:29:31;3.03;;;2.00;;
41687;SDS011;27371;42.686;23.362;2022-07-29T08:32:01;6.63;;;2.35;;
41687;SDS011;27371;42.686;23.362;2022-07-29T08:42:02;3.38;;;1.85;;
41687;SDS011;27371;42.686;23.362;2022-07-29T08:44:38;8.95;;;2.00;;
41687;SDS011;27371;42.686;23.362;2022-07-29T08:47:03;4.05;;;1.90;;
41687;SDS011;27371;42.686;23.362;2022-07-29T08:49:29;3.58;;;2.00;;
41687;SDS011;27371;42.686;23.362;2022-07-29T08:52:04;2.15;;;1.90;;
41687;SDS011;27371;42.686;23.362;2022-07-29T08:54:35;4.20;;;2.35;;
41687;SDS011;27371;42.686;23.362;2022-07-29T09:10:49;6.00;;;2.00;;
41687;SDS011;27371;42.686;23.362;2022-07-29T09:13:25;3.78;;;1.80;;
41687;SDS011;27371;42.686;23.362;2022-07-29T09:15:53;5.00;;;2.15;;
41687;SDS011;27371;42.686;23.362;2022-07-29T09:18:43;7.45;;;1.90;;
41687;SDS011;27371;42.686;23.362;2022-07-29T09:21:28;4.65;;;1.55;;
41687;SDS011;27371;42.686;23.362;2022-07-29T09:24:23;3.90;;;2.35;;
41687;SDS011;27371;42.686;23.362;2022-07-29T09:27:25;5.72;;;2.22;;
41687;SDS011;27371;42.686;23.362;2022-07-29T09:29:55;3.33;;;2.25;;
41687;SDS011;27371;42.686;23.362;2022-07-29T09:32:27;3.15;;;2.00;;
41687;SDS011;27371;42.686;23.362;2022-07-29T09:38:26;3.83;;;2.20;;
41687;SDS011;27371;42.686;23.362;2022-07-29T09:44:46;4.10;;;2.08;;
41687;SDS011;27371;42.686;23.362;2022-07-29T09:47:16;3.38;;;1.90;;
41687;SDS011;27371;42.686;23.362;2022-07-29T09:53:37;6.13;;;1.80;;
41687;SDS011;27371;42.686;23.362;2022-07-29T09:56:03;2.75;;;1.60;;
41687;SDS011;27371;42.686;23.362;2022-07-29T09:58:29;3.85;;;1.60;;
41687;SDS011;27371;42.686;23.362;2022-07-29T10:00:56;3.03;;;1.70;;
41687;SDS011;27371;42.686;23.362;2022-07-29T10:03:22;7.82;;;2.05;;
41687;SDS011;27371;42.686;23.362;2022-07-29T10:06:07;5.32;;;2.20;;
41687;SDS011;27371;42.686;23.362;2022-07-29T10:08:34;2.28;;;1.73;;
41687;SDS011;27371;42.686;23.362;2022-07-29T10:13:34;2.60;;;2.10;;
41687;SDS011;27371;42.686;23.362;2022-07-29T10:16:00;6.55;;;2.20;;
41687;SDS011;27371;42.686;23.362;2022-07-29T10:18:26;5.20;;;1.90;;
41687;SDS011;27371;42.686;23.362;2022-07-29T10:20:52;2.70;;;1.80;;
41687;SDS011;27371;42.686;23.362;2022-07-29T10:23:18;3.35;;;1.70;;
41687;SDS011;27371;42.686;23.362;2022-07-29T10:25:45;3.38;;;2.08;;
41687;SDS011;27371;42.686;23.362;2022-07-29T10:28:11;4.18;;;1.77;;
41687;SDS011;27371;42.686;23.362;2022-07-29T10:30:36;6.63;;;1.88;;
41687;SDS011;27371;42.686;23.362;2022-07-29T10:33:08;7.45;;;2.25;;
41687;SDS011;27371;42.686;23.362;2022-07-29T10:38:47;4.38;;;2.15;;
41687;SDS011;27371;42.686;23.362;2022-07-29T10:41:31;2.65;;;1.90;;
41687;SDS011;27371;42.686;23.362;2022-07-29T10:44:15;6.43;;;2.08;;
41687;SDS011;27371;42.686;23.362;2022-07-29T10:46:43;3.70;;;1.60;;
41687;SDS011;27371;42.686;23.362;2022-07-29T10:49:13;5.30;;;1.90;;
41687;SDS011;27371;42.686;23.362;2022-07-29T10:57:15;4.72;;;2.00;;
41687;SDS011;27371;42.686;23.362;2022-07-29T10:59:49;2.60;;;2.15;;
41687;SDS011;27371;42.686;23.362;2022-07-29T11:05:02;3.42;;;1.90;;
41687;SDS011;27371;42.686;23.362;2022-07-29T11:07:29;4.32;;;2.20;;
41687;SDS011;27371;42.686;23.362;2022-07-29T11:15:18;3.92;;;2.33;;
41687;SDS011;27371;42.686;23.362;2022-07-29T11:23:01;3.53;;;2.17;;
41687;SDS011;27371;42.686;23.362;2022-07-29T11:25:43;3.15;;;2.03;;
41687;SDS011;27371;42.686;23.362;2022-07-29T11:28:10;5.40;;;2.33;;
41687;SDS011;27371;42.686;23.362;2022-07-29T11:30:53;2.72;;;2.08;;
41687;SDS011;27371;42.686;23.362;2022-07-29T11:33:32;4.10;;;2.53;;
41687;SDS011;27371;42.686;23.362;2022-07-29T11:36:08;4.28;;;2.50;;
41687;SDS011;27371;42.686;23.362;2022-07-29T11:38:35;4.53;;;2.13;;
41687;SDS011;27371;42.686;23.362;2022-07-29T11:43:59;3.63;;;2.42;;
41687;SDS011;27371;42.686;23.362;2022-07-29T11:46:44;3.50;;;2.50;;
41687;SDS011;27371;42.686;23.362;2022-07-29T11:49:12;5.47;;;2.60;;
41687;SDS011;27371;42.686;23.362;2022-07-29T11:51:38;4.78;;;2.28;;
41687;SDS011;27371;42.686;23.362;2022-07-29T11:54:05;5.38;;;2.40;;
41687;SDS011;27371;42.686;23.362;2022-07-29T11:56:35;5.10;;;2.40;;
41687;SDS011;27371;42.686;23.362;2022-07-29T11:59:08;4.95;;;2.75;;
41687;SDS011;27371;42.686;23.362;2022-07-29T12:01:35;3.72;;;2.63;;
41687;SDS011;27371;42.686;23.362;2022-07-29T12:04:04;5.10;;;2.50;;
41687;SDS011;27371;42.686;23.362;2022-07-29T12:06:31;4.80;;;2.50;;
41687;SDS011;27371;42.686;23.362;2022-07-29T12:08:56;5.40;;;2.50;;
41687;SDS011;27371;42.686;23.362;2022-07-29T12:11:22;5.20;;;2.60;;
41687;SDS011;27371;42.686;23.362;2022-07-29T12:13:48;6.65;;;2.75;;
41687;SDS011;27371;42.686;23.362;2022-07-29T12:16:14;6.05;;;2.67;;
41687;SDS011;27371;42.686;23.362;2022-07-29T12:18:40;2.75;;;2.53;;
41687;SDS011;27371;42.686;23.362;2022-07-29T12:21:06;4.70;;;2.85;;
41687;SDS011;27371;42.686;23.362;2022-07-29T12:23:34;3.70;;;2.40;;
41687;SDS011;27371;42.686;23.362;2022-07-29T12:25:59;7.78;;;2.75;;
41687;SDS011;27371;42.686;23.362;2022-07-29T12:28:25;3.53;;;2.90;;
41687;SDS011;27371;42.686;23.362;2022-07-29T12:30:51;4.97;;;3.03;;
41687;SDS011;27371;42.686;23.362;2022-07-29T12:33:21;7.18;;;3.08;;
41687;SDS011;27371;42.686;23.362;2022-07-29T12:35:50;3.15;;;2.80;;
41687;SDS011;27371;42.686;23.362;2022-07-29T12:38:18;6.93;;;3.22;;
41687;SDS011;27371;42.686;23.362;2022-07-29T12:40:45;4.18;;;2.95;;
41687;SDS011;27371;42.686;23.362;2022-07-29T12:45:38;4.22;;;2.90;;
41687;SDS011;27371;42.686;23.362;2022-07-29T12:48:06;3.33;;;2.67;;
41687;SDS011;27371;42.686;23.362;2022-07-29T12:50:36;4.03;;;3.22;;
41687;SDS011;27371;42.686;23.362;2022-07-29T12:53:18;4.03;;;2.70;;
41687;SDS011;27371;42.686;23.362;2022-07-29T12:55:45;3.30;;;2.90;;
41687;SDS011;27371;42.686;23.362;2022-07-29T12:58:29;6.38;;;3.45;;
41687;SDS011;27371;42.686;23.362;2022-07-29T13:01:14;4.97;;;3.17;;
41687;SDS011;27371;42.686;23.362;2022-07-29T13:03:53;3.60;;;2.95;;
41687;SDS011;27371;42.686;23.362;2022-07-29T13:06:36;7.75;;;3.00;;
41687;SDS011;27371;42.686;23.362;2022-07-29T13:17:02;4.07;;;2.95;;
41687;SDS011;27371;42.686;23.362;2022-07-29T13:22:05;5.25;;;3.00;;
41687;SDS011;27371;42.686;23.362;2022-07-29T13:24:33;4.03;;;3.00;;
41687;SDS011;27371;42.686;23.362;2022-07-29T13:26:59;3.28;;;2.97;;
41687;SDS011;27371;42.686;23.362;2022-07-29T13:29:25;4.80;;;3.00;;
41687;SDS011;27371;42.686;23.362;2022-07-29T13:32:09;3.90;;;3.00;;
41687;SDS011;27371;42.686;23.362;2022-07-29T13:34:34;4.57;;;3.22;;
41687;SDS011;27371;42.686;23.362;2022-07-29T13:37:00;2.95;;;2.50;;
41687;SDS011;27371;42.686;23.362;2022-07-29T13:39:26;4.18;;;2.83;;
41687;SDS011;27371;42.686;23.362;2022-07-29T13:41:52;4.35;;;2.80;;
41687;SDS011;27371;42.686;23.362;2022-07-29T13:44:17;3.97;;;2.75;;
41687;SDS011;27371;42.686;23.362;2022-07-29T13:46:43;5.07;;;2.67;;
41687;SDS011;27371;42.686;23.362;2022-07-29T13:49:08;3.08;;;2.53;;
41687;SDS011;27371;42.686;23.362;2022-07-29T13:51:35;3.60;;;3.25;;
41687;SDS011;27371;42.686;23.362;2022-07-29T13:54:01;3.30;;;2.78;;
41687;SDS011;27371;42.686;23.362;2022-07-29T13:56:29;2.97;;;2.63;;
41687;SDS011;27371;42.686;23.362;2022-07-29T13:58:55;3.40;;;2.50;;
41687;SDS011;27371;42.686;23.362;2022-07-29T14:01:21;5.00;;;3.30;;
41687;SDS011;27371;42.686;23.362;2022-07-29T14:03:46;4.40;;;2.78;;
41687;SDS011;27371;42.686;23.362;2022-07-29T14:06:12;4.88;;;3.10;;
41687;SDS011;27371;42.686;23.362;2022-07-29T14:08:38;3.72;;;2.88;;
41687;SDS011;27371;42.686;23.362;2022-07-29T14:11:04;4.50;;;2.80;;
41687;SDS011;27371;42.686;23.362;2022-07-29T14:13:30;6.13;;;3.33;;
41687;SDS011;27371;42.686;23.362;2022-07-29T14:15:56;3.55;;;2.83;;
41687;SDS011;27371;42.686;23.362;2022-07-29T14:18:22;2.92;;;2.58;;
41687;SDS011;27371;42.686;23.362;2022-07-29T14:20:47;4.28;;;3.00;;
41687;SDS011;27371;42.686;23.362;2022-07-29T14:23:13;3.47;;;2.90;;
41687;SDS011;27371;42.686;23.362;2022-07-29T14:25:38;4.47;;;2.70;;
41687;SDS011;27371;42.686;23.362;2022-07-29T14:28:04;5.18;;;3.28;;
41687;SDS011;27371;42.686;23.362;2022-07-29T14:30:29;4.22;;;3.00;;
41687;SDS011;27371;42.686;23.362;2022-07-29T14:32:55;3.63;;;3.00;;
41687;SDS011;27371;42.686;23.362;2022-07-29T14:35:20;6.15;;;2.85;;
41687;SDS011;27371;42.686;23.362;2022-07-29T14:37:46;3.90;;;2.92;;
41687;SDS011;27371;42.686;23.362;2022-07-29T14:40:11;5.10;;;2.95;;
41687;SDS011;27371;42.686;23.362;2022-07-29T14:42:37;4.63;;;3.08;;
41687;SDS011;27371;42.686;23.362;2022-07-29T14:45:04;3.75;;;3.33;;
41687;SDS011;27371;42.686;23.362;2022-07-29T14:47:31;5.28;;;2.95;;
41687;SDS011;27371;42.686;23.362;2022-07-29T14:49:56;3.38;;;3.08;;
41687;SDS011;27371;42.686;23.362;2022-07-29T14:52:21;3.40;;;3.10;;
41687;SDS011;27371;42.686;23.362;2022-07-29T14:54:47;4.05;;;2.78;;
41687;SDS011;27371;42.686;23.362;2022-07-29T14:57:13;3.10;;;2.80;;
41687;SDS011;27371;42.686;23.362;2022-07-29T14:59:38;3.78;;;2.90;;
41687;SDS011;27371;42.686;23.362;2022-07-29T15:02:04;3.42;;;2.97;;
41687;SDS011;27371;42.686;23.362;2022-07-29T15:04:29;3.42;;;3.13;;
41687;SDS011;27371;42.686;23.362;2022-07-29T15:06:55;3.35;;;3.05;;
41687;SDS011;27371;42.686;23.362;2022-07-29T15:09:20;4.28;;;3.15;;
41687;SDS011;27371;42.686;23.362;2022-07-29T15:11:46;4.88;;;3.38;;
41687;SDS011;27371;42.686;23.362;2022-07-29T15:14:11;3.70;;;3.40;;
41687;SDS011;27371;42.686;23.362;2022-07-29T15:16:37;3.75;;;3.35;;
41687;SDS011;27371;42.686;23.362;2022-07-29T15:19:04;3.92;;;3.08;;
41687;SDS011;27371;42.686;23.362;2022-07-29T15:21:29;4.22;;;3.25;;
41687;SDS011;27371;42.686;23.362;2022-07-29T15:23:55;3.33;;;3.03;;
41687;SDS011;27371;42.686;23.362;2022-07-29T15:26:21;3.90;;;3.30;;
41687;SDS011;27371;42.686;23.362;2022-07-29T15:28:46;3.88;;;3.33;;
41687;SDS011;27371;42.686;23.362;2022-07-29T15:31:13;3.90;;;3.40;;
41687;SDS011;27371;42.686;23.362;2022-07-29T15:33:39;5.18;;;4.18;;
41687;SDS011;27371;42.686;23.362;2022-07-29T15:36:04;5.80;;;3.50;;
41687;SDS011;27371;42.686;23.362;2022-07-29T15:38:30;4.32;;;3.85;;
41687;SDS011;27371;42.686;23.362;2022-07-29T15:40:56;4.75;;;3.10;;
41687;SDS011;27371;42.686;23.362;2022-07-29T15:43:22;3.60;;;3.30;;
41687;SDS011;27371;42.686;23.362;2022-07-29T15:45:48;5.15;;;3.60;;
41687;SDS011;27371;42.686;23.362;2022-07-29T15:48:31;4.87;;;3.63;;
41687;SDS011;27371;42.686;23.362;2022-07-29T15:50:58;5.68;;;2.70;;
41687;SDS011;27371;42.686;23.362;2022-07-29T15:53:24;4.40;;;3.22;;
41687;SDS011;27371;42.686;23.362;2022-07-29T15:55:50;4.32;;;3.00;;
41687;SDS011;27371;42.686;23.362;2022-07-29T15:58:16;3.42;;;2.88;;
41687;SDS011;27371;42.686;23.362;2022-07-29T16:00:42;3.40;;;2.85;;
41687;SDS011;27371;42.686;23.362;2022-07-29T16:03:07;3.38;;;2.85;;
41687;SDS011;27371;42.686;23.362;2022-07-29T16:05:33;4.82;;;2.75;;
41687;SDS011;27371;42.686;23.362;2022-07-29T16:07:58;3.10;;;2.55;;
41687;SDS011;27371;42.686;23.362;2022-07-29T16:10:25;6.53;;;3.15;;